sensor_id;sensor_type;location;lat;lon;timestamp;P1;durP1;ratioP1;P2;durP2;ratioP2
52608;SDS011;38503;48.544;12.142;2022-07-01T00:02:04;6.47;;;4.20;;
52608;SDS011;38503;48.544;12.142;2022-07-01T00:04:31;7.13;;;4.27;;
52608;SDS011;38503;48.544;12.142;2022-07-01T00:06:58;5.30;;;3.90;;
52608;SDS011;38503;48.544;12.142;2022-07-01T00:09:25;8.40;;;4.00;;
52608;SDS011;38503;48.544;12.142;2022-07-01T00:11:53;6.67;;;3.90;;
52608;SDS011;38503;48.544;12.142;2022-07-01T00:14:20;4.80;;;4.37;;
52608;SDS011;38503;48.544;12.142;2022-07-01T00:16:49;5.40;;;4.47;;
52608;SDS011;38503;48.544;12.142;2022-07-01T00:19:17;7.00;;;4.20;;
52608;SDS011;38503;48.544;12.142;2022-07-01T00:21:44;6.63;;;4.57;;
52608;SDS011;38503;48.544;12.142;2022-07-01T00:24:11;4.37;;;3.87;;
52608;SDS011;38503;48.544;12.142;2022-07-01T00:26:38;4.63;;;4.10;;
52608;SDS011;38503;48.544;12.142;2022-07-01T00:29:05;4.10;;;3.80;;
52608;SDS011;38503;48.544;12.142;2022-07-01T00:31:32;5.63;;;3.60;;
52608;SDS011;38503;48.544;12.142;2022-07-01T00:34:00;7.27;;;4.60;;
52608;SDS011;38503;48.544;12.142;2022-07-01T00:36:27;6.03;;;4.30;;
52608;SDS011;38503;48.544;12.142;2022-07-01T00:38:57;4.93;;;3.77;;
52608;SDS011;38503;48.544;12.142;2022-07-01T00:41:24;7.77;;;4.40;;
52608;SDS011;38503;48.544;12.142;2022-07-01T00:43:52;5.70;;;4.53;;
52608;SDS011;38503;48.544;12.142;2022-07-01T00:46:21;11.23;;;4.73;;
52608;SDS011;38503;48.544;12.142;2022-07-01T00:48:54;6.20;;;4.77;;
52608;SDS011;38503;48.544;12.142;2022-07-01T00:51:24;9.20;;;4.57;;
52608;SDS011;38503;48.544;12.142;2022-07-01T00:53:51;5.13;;;4.30;;
52608;SDS011;38503;48.544;12.142;2022-07-01T00:56:19;4.50;;;4.10;;
52608;SDS011;38503;48.544;12.142;2022-07-01T00:58:46;6.57;;;4.53;;
52608;SDS011;38503;48.544;12.142;2022-07-01T01:01:13;6.63;;;5.30;;
52608;SDS011;38503;48.544;12.142;2022-07-01T01:03:40;9.87;;;5.50;;
52608;SDS011;38503;48.544;12.142;2022-07-01T01:06:07;7.40;;;5.23;;
52608;SDS011;38503;48.544;12.142;2022-07-01T01:08:36;6.37;;;5.53;;
52608;SDS011;38503;48.544;12.142;2022-07-01T01:11:04;7.77;;;5.97;;
52608;SDS011;38503;48.544;12.142;2022-07-01T01:13:31;7.40;;;5.67;;
52608;SDS011;38503;48.544;12.142;2022-07-01T01:15:58;6.10;;;5.60;;
52608;SDS011;38503;48.544;12.142;2022-07-01T01:18:25;7.07;;;6.10;;
52608;SDS011;38503;48.544;12.142;2022-07-01T01:20:53;9.53;;;7.07;;
52608;SDS011;38503;48.544;12.142;2022-07-01T01:23:20;8.70;;;5.53;;
52608;SDS011;38503;48.544;12.142;2022-07-01T01:25:47;6.43;;;5.67;;
52608;SDS011;38503;48.544;12.142;2022-07-01T01:28:14;12.77;;;8.13;;
52608;SDS011;38503;48.544;12.142;2022-07-01T01:30:41;11.70;;;6.70;;
52608;SDS011;38503;48.544;12.142;2022-07-01T01:33:08;7.13;;;5.90;;
52608;SDS011;38503;48.544;12.142;2022-07-01T01:35:37;9.83;;;6.40;;
52608;SDS011;38503;48.544;12.142;2022-07-01T01:38:05;7.20;;;5.10;;
52608;SDS011;38503;48.544;12.142;2022-07-01T01:40:32;6.43;;;5.23;;
52608;SDS011;38503;48.544;12.142;2022-07-01T01:42:59;5.80;;;5.00;;
52608;SDS011;38503;48.544;12.142;2022-07-01T01:45:26;5.10;;;4.43;;
52608;SDS011;38503;48.544;12.142;2022-07-01T01:47:53;6.60;;;4.80;;
52608;SDS011;38503;48.544;12.142;2022-07-01T01:50:20;5.30;;;4.40;;
52608;SDS011;38503;48.544;12.142;2022-07-01T01:52:47;9.70;;;5.00;;
52608;SDS011;38503;48.544;12.142;2022-07-01T01:55:14;4.83;;;4.07;;
52608;SDS011;38503;48.544;12.142;2022-07-01T01:57:41;4.87;;;4.37;;
52608;SDS011;38503;48.544;12.142;2022-07-01T02:00:08;5.50;;;3.80;;
52608;SDS011;38503;48.544;12.142;2022-07-01T02:02:36;6.43;;;3.57;;
52608;SDS011;38503;48.544;12.142;2022-07-01T02:05:07;5.33;;;3.53;;
52608;SDS011;38503;48.544;12.142;2022-07-01T02:07:36;4.30;;;3.27;;
52608;SDS011;38503;48.544;12.142;2022-07-01T02:10:04;4.73;;;3.60;;
52608;SDS011;38503;48.544;12.142;2022-07-01T02:12:31;3.63;;;3.33;;
52608;SDS011;38503;48.544;12.142;2022-07-01T02:14:58;3.63;;;3.33;;
52608;SDS011;38503;48.544;12.142;2022-07-01T02:17:25;5.03;;;3.00;;
52608;SDS011;38503;48.544;12.142;2022-07-01T02:19:52;4.80;;;2.80;;
52608;SDS011;38503;48.544;12.142;2022-07-01T02:22:19;3.40;;;3.10;;
52608;SDS011;38503;48.544;12.142;2022-07-01T02:24:46;3.47;;;3.17;;
52608;SDS011;38503;48.544;12.142;2022-07-01T02:27:13;4.83;;;3.63;;
52608;SDS011;38503;48.544;12.142;2022-07-01T02:29:40;5.00;;;3.10;;
52608;SDS011;38503;48.544;12.142;2022-07-01T02:32:08;5.20;;;3.53;;
52608;SDS011;38503;48.544;12.142;2022-07-01T02:34:35;5.63;;;3.60;;
52608;SDS011;38503;48.544;12.142;2022-07-01T02:37:03;4.03;;;2.83;;
52608;SDS011;38503;48.544;12.142;2022-07-01T02:39:30;5.80;;;3.20;;
52608;SDS011;38503;48.544;12.142;2022-07-01T02:42:01;6.43;;;3.50;;
52608;SDS011;38503;48.544;12.142;2022-07-01T02:44:46;3.73;;;3.20;;
52608;SDS011;38503;48.544;12.142;2022-07-01T02:47:14;6.33;;;3.50;;
52608;SDS011;38503;48.544;12.142;2022-07-01T02:49:40;3.40;;;2.90;;
52608;SDS011;38503;48.544;12.142;2022-07-01T02:52:07;4.57;;;2.80;;
52608;SDS011;38503;48.544;12.142;2022-07-01T02:54:34;5.30;;;3.00;;
52608;SDS011;38503;48.544;12.142;2022-07-01T02:57:02;3.27;;;2.83;;
52608;SDS011;38503;48.544;12.142;2022-07-01T02:59:29;3.30;;;3.00;;
52608;SDS011;38503;48.544;12.142;2022-07-01T03:01:56;4.63;;;3.17;;
52608;SDS011;38503;48.544;12.142;2022-07-01T03:04:23;3.27;;;2.90;;
52608;SDS011;38503;48.544;12.142;2022-07-01T03:06:50;4.10;;;2.90;;
52608;SDS011;38503;48.544;12.142;2022-07-01T03:09:17;3.17;;;2.73;;
52608;SDS011;38503;48.544;12.142;2022-07-01T03:11:44;3.10;;;2.80;;
52608;SDS011;38503;48.544;12.142;2022-07-01T03:14:11;5.87;;;3.50;;
52608;SDS011;38503;48.544;12.142;2022-07-01T03:16:38;2.50;;;2.30;;
52608;SDS011;38503;48.544;12.142;2022-07-01T03:19:05;4.30;;;2.50;;
52608;SDS011;38503;48.544;12.142;2022-07-01T03:21:32;3.00;;;2.73;;
52608;SDS011;38503;48.544;12.142;2022-07-01T03:23:59;6.03;;;4.10;;
52608;SDS011;38503;48.544;12.142;2022-07-01T03:26:26;8.73;;;5.03;;
52608;SDS011;38503;48.544;12.142;2022-07-01T03:28:53;3.60;;;2.60;;
52608;SDS011;38503;48.544;12.142;2022-07-01T03:31:20;3.80;;;3.20;;
52608;SDS011;38503;48.544;12.142;2022-07-01T03:33:47;2.77;;;2.47;;
52608;SDS011;38503;48.544;12.142;2022-07-01T03:36:14;3.13;;;2.50;;
52608;SDS011;38503;48.544;12.142;2022-07-01T03:38:41;2.50;;;2.30;;
52608;SDS011;38503;48.544;12.142;2022-07-01T03:41:09;2.30;;;2.10;;
52608;SDS011;38503;48.544;12.142;2022-07-01T03:43:36;2.73;;;2.10;;
52608;SDS011;38503;48.544;12.142;2022-07-01T03:46:03;2.63;;;2.40;;
52608;SDS011;38503;48.544;12.142;2022-07-01T03:48:30;3.30;;;2.40;;
52608;SDS011;38503;48.544;12.142;2022-07-01T03:50:57;2.70;;;2.50;;
52608;SDS011;38503;48.544;12.142;2022-07-01T03:53:24;2.50;;;2.20;;
52608;SDS011;38503;48.544;12.142;2022-07-01T03:56:09;2.67;;;2.47;;
52608;SDS011;38503;48.544;12.142;2022-07-01T03:58:36;2.63;;;2.30;;
52608;SDS011;38503;48.544;12.142;2022-07-01T04:01:03;2.90;;;2.27;;
52608;SDS011;38503;48.544;12.142;2022-07-01T04:03:30;2.40;;;2.20;;
52608;SDS011;38503;48.544;12.142;2022-07-01T04:05:57;2.50;;;2.30;;
52608;SDS011;38503;48.544;12.142;2022-07-01T04:08:24;2.33;;;2.10;;
52608;SDS011;38503;48.544;12.142;2022-07-01T04:10:52;2.50;;;2.27;;
52608;SDS011;38503;48.544;12.142;2022-07-01T04:13:21;2.43;;;2.10;;
52608;SDS011;38503;48.544;12.142;2022-07-01T04:15:57;2.23;;;2.00;;
52608;SDS011;38503;48.544;12.142;2022-07-01T04:18:26;3.23;;;2.50;;
52608;SDS011;38503;48.544;12.142;2022-07-01T04:20:54;9.37;;;7.97;;
52608;SDS011;38503;48.544;12.142;2022-07-01T04:23:39;4.73;;;3.10;;
52608;SDS011;38503;48.544;12.142;2022-07-01T04:26:06;5.07;;;2.17;;
52608;SDS011;38503;48.544;12.142;2022-07-01T04:28:53;2.77;;;2.20;;
52608;SDS011;38503;48.544;12.142;2022-07-01T04:31:21;2.33;;;2.07;;
52608;SDS011;38503;48.544;12.142;2022-07-01T04:33:48;5.87;;;2.10;;
52608;SDS011;38503;48.544;12.142;2022-07-01T04:36:15;2.20;;;2.00;;
52608;SDS011;38503;48.544;12.142;2022-07-01T04:38:43;5.10;;;1.87;;
52608;SDS011;38503;48.544;12.142;2022-07-01T04:41:10;2.13;;;1.93;;
52608;SDS011;38503;48.544;12.142;2022-07-01T04:43:56;2.30;;;2.10;;
52608;SDS011;38503;48.544;12.142;2022-07-01T04:46:23;2.10;;;1.90;;
52608;SDS011;38503;48.544;12.142;2022-07-01T04:48:51;2.40;;;2.20;;
52608;SDS011;38503;48.544;12.142;2022-07-01T04:51:18;2.83;;;2.43;;
52608;SDS011;38503;48.544;12.142;2022-07-01T04:53:45;3.43;;;2.10;;
52608;SDS011;38503;48.544;12.142;2022-07-01T04:56:12;2.20;;;1.93;;
52608;SDS011;38503;48.544;12.142;2022-07-01T04:58:39;2.50;;;2.00;;
52608;SDS011;38503;48.544;12.142;2022-07-01T05:01:06;2.90;;;2.43;;
52608;SDS011;38503;48.544;12.142;2022-07-01T05:03:33;2.50;;;1.87;;
52608;SDS011;38503;48.544;12.142;2022-07-01T05:06:00;2.73;;;2.30;;
52608;SDS011;38503;48.544;12.142;2022-07-01T05:08:27;2.07;;;1.90;;
52608;SDS011;38503;48.544;12.142;2022-07-01T05:10:54;3.53;;;2.00;;
52608;SDS011;38503;48.544;12.142;2022-07-01T05:13:21;2.00;;;1.90;;
52608;SDS011;38503;48.544;12.142;2022-07-01T05:15:49;1.87;;;1.77;;
52608;SDS011;38503;48.544;12.142;2022-07-01T05:18:16;2.20;;;2.00;;
52608;SDS011;38503;48.544;12.142;2022-07-01T05:24:12;4.47;;;2.20;;
52608;SDS011;38503;48.544;12.142;2022-07-01T05:26:39;2.93;;;1.67;;
52608;SDS011;38503;48.544;12.142;2022-07-01T05:29:06;1.87;;;1.70;;
52608;SDS011;38503;48.544;12.142;2022-07-01T05:31:34;6.53;;;2.30;;
52608;SDS011;38503;48.544;12.142;2022-07-01T05:34:01;4.37;;;2.37;;
52608;SDS011;38503;48.544;12.142;2022-07-01T05:36:30;3.83;;;1.97;;
52608;SDS011;38503;48.544;12.142;2022-07-01T05:38:57;2.00;;;1.80;;
52608;SDS011;38503;48.544;12.142;2022-07-01T05:41:24;2.00;;;1.80;;
52608;SDS011;38503;48.544;12.142;2022-07-01T05:43:51;2.27;;;2.07;;
52608;SDS011;38503;48.544;12.142;2022-07-01T05:46:21;2.00;;;1.80;;
52608;SDS011;38503;48.544;12.142;2022-07-01T05:48:48;2.47;;;1.90;;
52608;SDS011;38503;48.544;12.142;2022-07-01T05:51:15;2.67;;;2.10;;
52608;SDS011;38503;48.544;12.142;2022-07-01T05:53:42;2.40;;;2.20;;
52608;SDS011;38503;48.544;12.142;2022-07-01T05:56:10;3.10;;;2.07;;
52608;SDS011;38503;48.544;12.142;2022-07-01T05:58:36;2.90;;;2.00;;
52608;SDS011;38503;48.544;12.142;2022-07-01T06:01:03;2.27;;;1.93;;
52608;SDS011;38503;48.544;12.142;2022-07-01T06:03:35;3.00;;;1.90;;
52608;SDS011;38503;48.544;12.142;2022-07-01T06:06:02;1.90;;;1.80;;
52608;SDS011;38503;48.544;12.142;2022-07-01T06:08:29;1.80;;;1.70;;
52608;SDS011;38503;48.544;12.142;2022-07-01T06:10:56;2.40;;;2.20;;
52608;SDS011;38503;48.544;12.142;2022-07-01T06:13:23;4.37;;;2.20;;
52608;SDS011;38503;48.544;12.142;2022-07-01T06:15:50;2.10;;;1.90;;
52608;SDS011;38503;48.544;12.142;2022-07-01T06:18:18;3.63;;;2.03;;
52608;SDS011;38503;48.544;12.142;2022-07-01T06:20:45;2.30;;;2.10;;
52608;SDS011;38503;48.544;12.142;2022-07-01T06:23:11;3.63;;;2.00;;
52608;SDS011;38503;48.544;12.142;2022-07-01T06:25:38;1.83;;;1.67;;
52608;SDS011;38503;48.544;12.142;2022-07-01T06:28:05;1.93;;;1.73;;
52608;SDS011;38503;48.544;12.142;2022-07-01T06:30:32;1.77;;;1.67;;
52608;SDS011;38503;48.544;12.142;2022-07-01T06:32:59;5.43;;;2.20;;
52608;SDS011;38503;48.544;12.142;2022-07-01T06:35:26;3.30;;;2.20;;
52608;SDS011;38503;48.544;12.142;2022-07-01T06:37:53;3.33;;;1.97;;
52608;SDS011;38503;48.544;12.142;2022-07-01T06:40:24;4.17;;;3.77;;
52608;SDS011;38503;48.544;12.142;2022-07-01T06:42:52;3.57;;;2.20;;
52608;SDS011;38503;48.544;12.142;2022-07-01T06:45:19;2.40;;;2.20;;
52608;SDS011;38503;48.544;12.142;2022-07-01T06:47:46;5.90;;;4.40;;
52608;SDS011;38503;48.544;12.142;2022-07-01T06:50:13;2.43;;;2.20;;
52608;SDS011;38503;48.544;12.142;2022-07-01T06:52:39;7.00;;;5.30;;
52608;SDS011;38503;48.544;12.142;2022-07-01T06:55:07;8.83;;;7.87;;
52608;SDS011;38503;48.544;12.142;2022-07-01T06:57:34;2.80;;;2.57;;
52608;SDS011;38503;48.544;12.142;2022-07-01T07:00:01;4.17;;;2.50;;
52608;SDS011;38503;48.544;12.142;2022-07-01T07:02:29;3.83;;;2.57;;
52608;SDS011;38503;48.544;12.142;2022-07-01T07:04:56;5.37;;;4.17;;
52608;SDS011;38503;48.544;12.142;2022-07-01T07:07:27;3.93;;;2.70;;
52608;SDS011;38503;48.544;12.142;2022-07-01T07:09:54;2.30;;;2.10;;
52608;SDS011;38503;48.544;12.142;2022-07-01T07:12:23;2.80;;;2.60;;
52608;SDS011;38503;48.544;12.142;2022-07-01T07:14:50;2.70;;;2.40;;
52608;SDS011;38503;48.544;12.142;2022-07-01T07:17:17;4.60;;;2.00;;
52608;SDS011;38503;48.544;12.142;2022-07-01T07:19:44;2.90;;;2.50;;
52608;SDS011;38503;48.544;12.142;2022-07-01T07:22:11;2.57;;;2.17;;
52608;SDS011;38503;48.544;12.142;2022-07-01T07:24:38;2.60;;;2.40;;
52608;SDS011;38503;48.544;12.142;2022-07-01T07:27:06;3.27;;;2.43;;
52608;SDS011;38503;48.544;12.142;2022-07-01T07:29:33;2.90;;;2.33;;
52608;SDS011;38503;48.544;12.142;2022-07-01T07:32:00;2.50;;;2.30;;
52608;SDS011;38503;48.544;12.142;2022-07-01T07:34:27;3.40;;;2.50;;
52608;SDS011;38503;48.544;12.142;2022-07-01T07:36:54;4.83;;;2.87;;
52608;SDS011;38503;48.544;12.142;2022-07-01T07:39:20;2.53;;;2.33;;
52608;SDS011;38503;48.544;12.142;2022-07-01T07:41:47;5.23;;;2.40;;
52608;SDS011;38503;48.544;12.142;2022-07-01T07:44:16;3.97;;;2.33;;
52608;SDS011;38503;48.544;12.142;2022-07-01T07:46:42;7.97;;;6.70;;
52608;SDS011;38503;48.544;12.142;2022-07-01T07:49:10;2.70;;;2.50;;
52608;SDS011;38503;48.544;12.142;2022-07-01T07:51:36;2.80;;;2.60;;
52608;SDS011;38503;48.544;12.142;2022-07-01T07:54:03;3.00;;;2.50;;
52608;SDS011;38503;48.544;12.142;2022-07-01T07:56:31;3.20;;;2.90;;
52608;SDS011;38503;48.544;12.142;2022-07-01T07:58:58;2.83;;;2.63;;
52608;SDS011;38503;48.544;12.142;2022-07-01T08:01:25;3.43;;;2.67;;
52608;SDS011;38503;48.544;12.142;2022-07-01T08:03:52;3.90;;;2.93;;
52608;SDS011;38503;48.544;12.142;2022-07-01T08:06:19;3.77;;;3.17;;
52608;SDS011;38503;48.544;12.142;2022-07-01T08:08:46;5.77;;;4.53;;
52608;SDS011;38503;48.544;12.142;2022-07-01T08:11:13;7.13;;;6.53;;
52608;SDS011;38503;48.544;12.142;2022-07-01T08:13:40;7.33;;;6.63;;
52608;SDS011;38503;48.544;12.142;2022-07-01T08:16:07;10.00;;;9.20;;
52608;SDS011;38503;48.544;12.142;2022-07-01T08:18:35;9.57;;;8.87;;
52608;SDS011;38503;48.544;12.142;2022-07-01T08:21:03;9.37;;;8.57;;
52608;SDS011;38503;48.544;12.142;2022-07-01T08:23:30;7.03;;;6.53;;
52608;SDS011;38503;48.544;12.142;2022-07-01T08:25:57;7.20;;;6.50;;
52608;SDS011;38503;48.544;12.142;2022-07-01T08:28:24;4.90;;;4.37;;
52608;SDS011;38503;48.544;12.142;2022-07-01T08:30:51;5.10;;;4.57;;
52608;SDS011;38503;48.544;12.142;2022-07-01T08:33:18;6.53;;;4.60;;
52608;SDS011;38503;48.544;12.142;2022-07-01T08:35:45;5.43;;;5.03;;
52608;SDS011;38503;48.544;12.142;2022-07-01T08:38:13;5.93;;;5.17;;
52608;SDS011;38503;48.544;12.142;2022-07-01T08:40:44;6.70;;;6.10;;
52608;SDS011;38503;48.544;12.142;2022-07-01T08:43:11;6.40;;;5.90;;
52608;SDS011;38503;48.544;12.142;2022-07-01T08:45:38;6.13;;;5.63;;
52608;SDS011;38503;48.544;12.142;2022-07-01T08:48:05;7.23;;;5.67;;
52608;SDS011;38503;48.544;12.142;2022-07-01T08:50:36;5.63;;;4.97;;
52608;SDS011;38503;48.544;12.142;2022-07-01T08:53:05;5.17;;;4.67;;
52608;SDS011;38503;48.544;12.142;2022-07-01T08:55:34;6.00;;;3.60;;
52608;SDS011;38503;48.544;12.142;2022-07-01T08:58:21;3.77;;;3.47;;
52608;SDS011;38503;48.544;12.142;2022-07-01T09:00:49;3.97;;;3.67;;
52608;SDS011;38503;48.544;12.142;2022-07-01T09:03:20;5.83;;;4.30;;
52608;SDS011;38503;48.544;12.142;2022-07-01T09:05:50;7.03;;;4.07;;
52608;SDS011;38503;48.544;12.142;2022-07-01T09:08:18;4.83;;;4.40;;
52608;SDS011;38503;48.544;12.142;2022-07-01T09:10:45;4.37;;;3.97;;
52608;SDS011;38503;48.544;12.142;2022-07-01T09:13:13;4.10;;;3.80;;
52608;SDS011;38503;48.544;12.142;2022-07-01T09:15:40;3.70;;;3.40;;
52608;SDS011;38503;48.544;12.142;2022-07-01T09:18:12;3.43;;;3.20;;
52608;SDS011;38503;48.544;12.142;2022-07-01T09:20:41;2.30;;;2.20;;
52608;SDS011;38503;48.544;12.142;2022-07-01T09:23:10;2.63;;;2.10;;
52608;SDS011;38503;48.544;12.142;2022-07-01T09:25:48;2.80;;;1.90;;
52608;SDS011;38503;48.544;12.142;2022-07-01T09:28:22;2.03;;;1.80;;
52608;SDS011;38503;48.544;12.142;2022-07-01T09:30:53;2.30;;;2.20;;
52608;SDS011;38503;48.544;12.142;2022-07-01T09:33:27;3.10;;;2.63;;
52608;SDS011;38503;48.544;12.142;2022-07-01T09:35:57;2.90;;;2.70;;
52608;SDS011;38503;48.544;12.142;2022-07-01T09:38:25;3.10;;;2.90;;
52608;SDS011;38503;48.544;12.142;2022-07-01T09:41:01;2.90;;;2.70;;
52608;SDS011;38503;48.544;12.142;2022-07-01T09:43:30;3.53;;;3.23;;
52608;SDS011;38503;48.544;12.142;2022-07-01T09:50:59;4.93;;;4.53;;
52608;SDS011;38503;48.544;12.142;2022-07-01T09:53:27;4.90;;;4.40;;
52608;SDS011;38503;48.544;12.142;2022-07-01T09:55:54;4.43;;;4.13;;
52608;SDS011;38503;48.544;12.142;2022-07-01T09:58:21;5.57;;;3.87;;
52608;SDS011;38503;48.544;12.142;2022-07-01T10:00:48;4.00;;;3.70;;
52608;SDS011;38503;48.544;12.142;2022-07-01T10:03:18;3.77;;;3.47;;
52608;SDS011;38503;48.544;12.142;2022-07-01T10:14:20;3.10;;;2.90;;
52608;SDS011;38503;48.544;12.142;2022-07-01T10:16:48;2.97;;;2.77;;
52608;SDS011;38503;48.544;12.142;2022-07-01T10:21:55;2.50;;;2.30;;
52608;SDS011;38503;48.544;12.142;2022-07-01T10:24:26;2.90;;;2.70;;
52608;SDS011;38503;48.544;12.142;2022-07-01T10:26:58;2.50;;;2.30;;
52608;SDS011;38503;48.544;12.142;2022-07-01T10:29:33;2.57;;;2.37;;
52608;SDS011;38503;48.544;12.142;2022-07-01T10:32:09;3.50;;;2.03;;
52608;SDS011;38503;48.544;12.142;2022-07-01T10:35:13;2.53;;;1.83;;
52608;SDS011;38503;48.544;12.142;2022-07-01T10:37:58;3.70;;;2.00;;
52608;SDS011;38503;48.544;12.142;2022-07-01T10:43:16;3.13;;;2.83;;
52608;SDS011;38503;48.544;12.142;2022-07-01T10:45:58;3.00;;;2.70;;
52608;SDS011;38503;48.544;12.142;2022-07-01T10:48:25;3.83;;;3.50;;
52608;SDS011;38503;48.544;12.142;2022-07-01T10:50:56;4.00;;;3.70;;
52608;SDS011;38503;48.544;12.142;2022-07-01T10:53:23;4.10;;;3.80;;
52608;SDS011;38503;48.544;12.142;2022-07-01T10:55:51;8.10;;;4.07;;
52608;SDS011;38503;48.544;12.142;2022-07-01T10:58:36;3.77;;;3.37;;
52608;SDS011;38503;48.544;12.142;2022-07-01T11:01:04;3.17;;;2.97;;
52608;SDS011;38503;48.544;12.142;2022-07-01T11:03:34;4.53;;;2.50;;
52608;SDS011;38503;48.544;12.142;2022-07-01T11:06:03;2.60;;;2.33;;
52608;SDS011;38503;48.544;12.142;2022-07-01T11:08:30;3.43;;;2.50;;
52608;SDS011;38503;48.544;12.142;2022-07-01T11:10:58;3.77;;;2.00;;
52608;SDS011;38503;48.544;12.142;2022-07-01T11:13:28;2.17;;;1.97;;
52608;SDS011;38503;48.544;12.142;2022-07-01T11:15:56;2.10;;;1.90;;
52608;SDS011;38503;48.544;12.142;2022-07-01T11:18:24;1.87;;;1.77;;
52608;SDS011;38503;48.544;12.142;2022-07-01T11:20:51;2.23;;;2.00;;
52608;SDS011;38503;48.544;12.142;2022-07-01T11:23:20;2.80;;;1.73;;
52608;SDS011;38503;48.544;12.142;2022-07-01T11:25:48;1.60;;;1.40;;
52608;SDS011;38503;48.544;12.142;2022-07-01T11:28:15;1.80;;;1.70;;
52608;SDS011;38503;48.544;12.142;2022-07-01T11:30:42;2.10;;;1.90;;
52608;SDS011;38503;48.544;12.142;2022-07-01T11:33:09;3.33;;;1.90;;
52608;SDS011;38503;48.544;12.142;2022-07-01T11:35:37;1.87;;;1.73;;
52608;SDS011;38503;48.544;12.142;2022-07-01T11:38:23;4.03;;;2.20;;
52608;SDS011;38503;48.544;12.142;2022-07-01T11:41:10;1.87;;;1.60;;
52608;SDS011;38503;48.544;12.142;2022-07-01T11:43:53;1.70;;;1.60;;
52608;SDS011;38503;48.544;12.142;2022-07-01T11:46:20;1.50;;;1.40;;
52608;SDS011;38503;48.544;12.142;2022-07-01T11:48:49;1.40;;;1.30;;
52608;SDS011;38503;48.544;12.142;2022-07-01T11:51:18;2.33;;;1.70;;
52608;SDS011;38503;48.544;12.142;2022-07-01T11:53:51;1.47;;;1.23;;
52608;SDS011;38503;48.544;12.142;2022-07-01T11:56:27;1.43;;;1.33;;
52608;SDS011;38503;48.544;12.142;2022-07-01T11:58:56;2.27;;;1.30;;
52608;SDS011;38503;48.544;12.142;2022-07-01T12:03:59;3.63;;;1.50;;
52608;SDS011;38503;48.544;12.142;2022-07-01T12:06:29;2.07;;;1.43;;
52608;SDS011;38503;48.544;12.142;2022-07-01T12:08:57;3.00;;;1.50;;
52608;SDS011;38503;48.544;12.142;2022-07-01T12:11:25;2.50;;;1.80;;
52608;SDS011;38503;48.544;12.142;2022-07-01T12:13:53;3.60;;;1.50;;
52608;SDS011;38503;48.544;12.142;2022-07-01T12:16:23;3.40;;;1.67;;
52608;SDS011;38503;48.544;12.142;2022-07-01T12:18:55;1.60;;;1.50;;
52608;SDS011;38503;48.544;12.142;2022-07-01T12:21:22;2.80;;;1.50;;
52608;SDS011;38503;48.544;12.142;2022-07-01T12:24:07;1.67;;;1.57;;
52608;SDS011;38503;48.544;12.142;2022-07-01T12:26:45;3.47;;;2.80;;
52608;SDS011;38503;48.544;12.142;2022-07-01T12:29:15;2.23;;;1.70;;
52608;SDS011;38503;48.544;12.142;2022-07-01T12:31:43;2.20;;;1.90;;
52608;SDS011;38503;48.544;12.142;2022-07-01T12:34:20;2.90;;;1.67;;
52608;SDS011;38503;48.544;12.142;2022-07-01T12:36:48;1.80;;;1.70;;
52608;SDS011;38503;48.544;12.142;2022-07-01T12:39:15;5.30;;;2.10;;
52608;SDS011;38503;48.544;12.142;2022-07-01T12:41:48;1.70;;;1.60;;
52608;SDS011;38503;48.544;12.142;2022-07-01T12:44:24;2.50;;;2.03;;
52608;SDS011;38503;48.544;12.142;2022-07-01T12:46:52;2.93;;;1.63;;
52608;SDS011;38503;48.544;12.142;2022-07-01T12:49:22;2.17;;;1.97;;
52608;SDS011;38503;48.544;12.142;2022-07-01T12:51:51;2.10;;;1.90;;
52608;SDS011;38503;48.544;12.142;2022-07-01T12:54:31;1.80;;;1.53;;
52608;SDS011;38503;48.544;12.142;2022-07-01T12:56:59;1.87;;;1.70;;
52608;SDS011;38503;48.544;12.142;2022-07-01T12:59:27;2.13;;;1.77;;
52608;SDS011;38503;48.544;12.142;2022-07-01T13:01:54;1.67;;;1.57;;
52608;SDS011;38503;48.544;12.142;2022-07-01T13:04:26;2.13;;;1.80;;
52608;SDS011;38503;48.544;12.142;2022-07-01T13:06:54;1.67;;;1.57;;
52608;SDS011;38503;48.544;12.142;2022-07-01T13:09:21;1.93;;;1.73;;
52608;SDS011;38503;48.544;12.142;2022-07-01T13:11:48;1.50;;;1.40;;
52608;SDS011;38503;48.544;12.142;2022-07-01T13:14:15;1.60;;;1.50;;
52608;SDS011;38503;48.544;12.142;2022-07-01T13:16:42;2.17;;;1.70;;
52608;SDS011;38503;48.544;12.142;2022-07-01T13:19:09;2.03;;;1.50;;
52608;SDS011;38503;48.544;12.142;2022-07-01T13:21:36;2.83;;;1.50;;
52608;SDS011;38503;48.544;12.142;2022-07-01T13:24:03;1.83;;;1.70;;
52608;SDS011;38503;48.544;12.142;2022-07-01T13:26:50;2.20;;;2.00;;
52608;SDS011;38503;48.544;12.142;2022-07-01T13:29:17;4.87;;;1.80;;
52608;SDS011;38503;48.544;12.142;2022-07-01T13:31:44;2.33;;;1.40;;
52608;SDS011;38503;48.544;12.142;2022-07-01T13:34:12;4.90;;;1.93;;
52608;SDS011;38503;48.544;12.142;2022-07-01T13:36:39;3.00;;;1.50;;
52608;SDS011;38503;48.544;12.142;2022-07-01T13:39:06;2.00;;;1.80;;
52608;SDS011;38503;48.544;12.142;2022-07-01T13:41:33;2.10;;;1.90;;
52608;SDS011;38503;48.544;12.142;2022-07-01T13:44:00;2.43;;;1.90;;
52608;SDS011;38503;48.544;12.142;2022-07-01T13:46:27;4.90;;;3.37;;
52608;SDS011;38503;48.544;12.142;2022-07-01T13:48:54;2.50;;;2.30;;
52608;SDS011;38503;48.544;12.142;2022-07-01T13:51:21;5.13;;;2.30;;
52608;SDS011;38503;48.544;12.142;2022-07-01T13:53:47;2.20;;;2.00;;
52608;SDS011;38503;48.544;12.142;2022-07-01T13:56:14;2.37;;;2.03;;
52608;SDS011;38503;48.544;12.142;2022-07-01T13:58:41;2.30;;;2.10;;
52608;SDS011;38503;48.544;12.142;2022-07-01T14:01:08;2.97;;;2.50;;
52608;SDS011;38503;48.544;12.142;2022-07-01T14:03:35;2.60;;;2.10;;
52608;SDS011;38503;48.544;12.142;2022-07-01T14:06:02;2.90;;;2.27;;
52608;SDS011;38503;48.544;12.142;2022-07-01T14:08:29;2.30;;;2.10;;
52608;SDS011;38503;48.544;12.142;2022-07-01T14:10:56;2.47;;;2.20;;
52608;SDS011;38503;48.544;12.142;2022-07-01T14:13:23;3.57;;;2.20;;
52608;SDS011;38503;48.544;12.142;2022-07-01T14:15:50;2.77;;;2.20;;
52608;SDS011;38503;48.544;12.142;2022-07-01T14:18:17;3.90;;;2.50;;
52608;SDS011;38503;48.544;12.142;2022-07-01T14:20:44;2.40;;;1.90;;
52608;SDS011;38503;48.544;12.142;2022-07-01T14:23:12;2.40;;;2.20;;
52608;SDS011;38503;48.544;12.142;2022-07-01T14:25:39;3.70;;;2.53;;
52608;SDS011;38503;48.544;12.142;2022-07-01T14:28:08;4.53;;;2.57;;
52608;SDS011;38503;48.544;12.142;2022-07-01T14:30:35;2.80;;;2.37;;
52608;SDS011;38503;48.544;12.142;2022-07-01T14:33:02;2.83;;;2.57;;
52608;SDS011;38503;48.544;12.142;2022-07-01T14:35:29;2.70;;;2.40;;
52608;SDS011;38503;48.544;12.142;2022-07-01T14:37:56;3.13;;;2.30;;
52608;SDS011;38503;48.544;12.142;2022-07-01T14:40:25;3.57;;;2.40;;
52608;SDS011;38503;48.544;12.142;2022-07-01T14:42:51;2.40;;;2.20;;
52608;SDS011;38503;48.544;12.142;2022-07-01T14:45:18;2.47;;;2.17;;
52608;SDS011;38503;48.544;12.142;2022-07-01T14:47:45;2.60;;;2.20;;
52608;SDS011;38503;48.544;12.142;2022-07-01T14:50:18;3.70;;;2.30;;
52608;SDS011;38503;48.544;12.142;2022-07-01T14:52:47;2.43;;;2.23;;
52608;SDS011;38503;48.544;12.142;2022-07-01T14:55:15;2.97;;;2.27;;
52608;SDS011;38503;48.544;12.142;2022-07-01T14:57:42;4.87;;;2.70;;
52608;SDS011;38503;48.544;12.142;2022-07-01T15:00:09;2.90;;;2.60;;
52608;SDS011;38503;48.544;12.142;2022-07-01T15:02:37;2.57;;;2.30;;
52608;SDS011;38503;48.544;12.142;2022-07-01T15:05:05;2.77;;;2.43;;
52608;SDS011;38503;48.544;12.142;2022-07-01T15:07:32;4.90;;;2.70;;